sensor_id;sensor_type;location;lat;lon;timestamp;P1;durP1;ratioP1;P2;durP2;ratioP2
6376;SDS011;3221;48.858;10.128;2022-11-27T00:02:25;11.07;;;6.70;;
6376;SDS011;3221;48.858;10.128;2022-11-27T00:04:52;11.80;;;6.90;;
6376;SDS011;3221;48.858;10.128;2022-11-27T00:07:19;11.03;;;6.43;;
6376;SDS011;3221;48.858;10.128;2022-11-27T00:09:46;11.87;;;6.67;;
6376;SDS011;3221;48.858;10.128;2022-11-27T00:12:13;8.50;;;5.93;;
6376;SDS011;3221;48.858;10.128;2022-11-27T00:14:40;8.53;;;6.30;;
6376;SDS011;3221;48.858;10.128;2022-11-27T00:17:07;10.13;;;6.17;;
6376;SDS011;3221;48.858;10.128;2022-11-27T00:19:34;11.17;;;6.73;;
6376;SDS011;3221;48.858;10.128;2022-11-27T00:22:01;7.90;;;5.80;;
6376;SDS011;3221;48.858;10.128;2022-11-27T00:24:28;9.20;;;6.07;;
6376;SDS011;3221;48.858;10.128;2022-11-27T00:26:55;11.77;;;5.60;;
6376;SDS011;3221;48.858;10.128;2022-11-27T00:29:21;9.57;;;5.57;;
6376;SDS011;3221;48.858;10.128;2022-11-27T00:31:48;9.17;;;5.67;;
6376;SDS011;3221;48.858;10.128;2022-11-27T00:34:15;7.13;;;5.30;;
6376;SDS011;3221;48.858;10.128;2022-11-27T00:36:42;8.57;;;5.53;;
6376;SDS011;3221;48.858;10.128;2022-11-27T00:39:13;8.63;;;5.07;;
6376;SDS011;3221;48.858;10.128;2022-11-27T00:41:40;9.37;;;5.40;;
6376;SDS011;3221;48.858;10.128;2022-11-27T00:44:07;8.50;;;5.73;;
6376;SDS011;3221;48.858;10.128;2022-11-27T00:46:34;9.40;;;5.90;;
6376;SDS011;3221;48.858;10.128;2022-11-27T00:49:02;14.20;;;6.40;;
6376;SDS011;3221;48.858;10.128;2022-11-27T00:51:31;10.03;;;6.47;;
6376;SDS011;3221;48.858;10.128;2022-11-27T00:53:58;11.20;;;6.63;;
6376;SDS011;3221;48.858;10.128;2022-11-27T00:56:26;8.17;;;5.83;;
6376;SDS011;3221;48.858;10.128;2022-11-27T00:58:55;9.63;;;5.60;;
6376;SDS011;3221;48.858;10.128;2022-11-27T01:01:33;10.30;;;6.40;;
6376;SDS011;3221;48.858;10.128;2022-11-27T01:04:04;9.20;;;6.00;;
6376;SDS011;3221;48.858;10.128;2022-11-27T01:06:32;8.10;;;5.63;;
6376;SDS011;3221;48.858;10.128;2022-11-27T01:08:59;10.40;;;6.30;;
6376;SDS011;3221;48.858;10.128;2022-11-27T01:11:27;12.93;;;6.63;;
6376;SDS011;3221;48.858;10.128;2022-11-27T01:13:57;7.63;;;5.77;;
6376;SDS011;3221;48.858;10.128;2022-11-27T01:16:27;9.10;;;6.07;;
6376;SDS011;3221;48.858;10.128;2022-11-27T01:18:56;10.30;;;5.90;;
6376;SDS011;3221;48.858;10.128;2022-11-27T01:21:25;10.13;;;6.30;;
6376;SDS011;3221;48.858;10.128;2022-11-27T01:23:54;10.87;;;6.53;;
6376;SDS011;3221;48.858;10.128;2022-11-27T01:26:22;8.73;;;5.80;;
6376;SDS011;3221;48.858;10.128;2022-11-27T01:28:52;9.57;;;6.23;;
6376;SDS011;3221;48.858;10.128;2022-11-27T01:31:22;10.10;;;6.20;;
6376;SDS011;3221;48.858;10.128;2022-11-27T01:33:57;10.47;;;6.23;;
6376;SDS011;3221;48.858;10.128;2022-11-27T01:36:31;7.30;;;5.80;;
6376;SDS011;3221;48.858;10.128;2022-11-27T01:38:59;11.57;;;6.03;;
6376;SDS011;3221;48.858;10.128;2022-11-27T01:41:31;11.40;;;6.40;;
6376;SDS011;3221;48.858;10.128;2022-11-27T01:44:41;9.10;;;6.50;;
6376;SDS011;3221;48.858;10.128;2022-11-27T01:49:32;10.83;;;5.90;;
6376;SDS011;3221;48.858;10.128;2022-11-27T01:52:01;9.63;;;5.93;;
6376;SDS011;3221;48.858;10.128;2022-11-27T01:54:39;12.17;;;6.10;;
6376;SDS011;3221;48.858;10.128;2022-11-27T01:57:14;7.87;;;5.63;;
6376;SDS011;3221;48.858;10.128;2022-11-27T01:59:45;7.60;;;5.70;;
6376;SDS011;3221;48.858;10.128;2022-11-27T02:02:14;8.43;;;5.53;;
6376;SDS011;3221;48.858;10.128;2022-11-27T02:04:41;9.33;;;5.57;;
6376;SDS011;3221;48.858;10.128;2022-11-27T02:07:08;9.10;;;5.83;;
6376;SDS011;3221;48.858;10.128;2022-11-27T02:09:35;10.93;;;5.50;;
6376;SDS011;3221;48.858;10.128;2022-11-27T02:14:40;10.93;;;6.40;;
6376;SDS011;3221;48.858;10.128;2022-11-27T02:20:21;8.80;;;5.50;;
6376;SDS011;3221;48.858;10.128;2022-11-27T02:23:10;10.30;;;5.80;;
6376;SDS011;3221;48.858;10.128;2022-11-27T02:25:49;9.63;;;6.30;;
6376;SDS011;3221;48.858;10.128;2022-11-27T02:31:35;8.53;;;6.03;;
6376;SDS011;3221;48.858;10.128;2022-11-27T02:34:21;10.70;;;6.30;;
6376;SDS011;3221;48.858;10.128;2022-11-27T02:42:54;10.40;;;5.80;;
6376;SDS011;3221;48.858;10.128;2022-11-27T02:45:32;9.13;;;6.17;;
6376;SDS011;3221;48.858;10.128;2022-11-27T02:48:03;10.60;;;6.00;;
6376;SDS011;3221;48.858;10.128;2022-11-27T02:50:32;11.73;;;5.83;;
6376;SDS011;3221;48.858;10.128;2022-11-27T02:53:03;8.63;;;5.80;;
6376;SDS011;3221;48.858;10.128;2022-11-27T02:55:33;9.63;;;5.80;;
6376;SDS011;3221;48.858;10.128;2022-11-27T02:58:04;10.80;;;6.90;;
6376;SDS011;3221;48.858;10.128;2022-11-27T03:00:36;11.10;;;6.43;;
6376;SDS011;3221;48.858;10.128;2022-11-27T03:03:04;10.17;;;6.33;;
6376;SDS011;3221;48.858;10.128;2022-11-27T03:05:36;8.77;;;6.10;;
6376;SDS011;3221;48.858;10.128;2022-11-27T03:08:09;8.47;;;6.57;;
6376;SDS011;3221;48.858;10.128;2022-11-27T03:13:26;11.47;;;6.60;;
6376;SDS011;3221;48.858;10.128;2022-11-27T03:21:40;11.00;;;6.87;;
6376;SDS011;3221;48.858;10.128;2022-11-27T03:24:10;11.53;;;7.00;;
6376;SDS011;3221;48.858;10.128;2022-11-27T03:26:38;11.10;;;7.03;;
6376;SDS011;3221;48.858;10.128;2022-11-27T03:29:28;10.10;;;6.47;;
6376;SDS011;3221;48.858;10.128;2022-11-27T03:31:53;11.27;;;6.97;;
6376;SDS011;3221;48.858;10.128;2022-11-27T03:34:21;13.33;;;6.43;;
6376;SDS011;3221;48.858;10.128;2022-11-27T03:36:49;12.23;;;6.93;;
6376;SDS011;3221;48.858;10.128;2022-11-27T03:39:15;12.53;;;6.97;;
6376;SDS011;3221;48.858;10.128;2022-11-27T03:41:44;10.90;;;6.60;;
6376;SDS011;3221;48.858;10.128;2022-11-27T03:44:38;10.93;;;6.17;;
6376;SDS011;3221;48.858;10.128;2022-11-27T03:47:24;10.63;;;6.13;;
6376;SDS011;3221;48.858;10.128;2022-11-27T03:55:36;8.43;;;6.20;;
6376;SDS011;3221;48.858;10.128;2022-11-27T03:58:10;9.00;;;6.10;;
6376;SDS011;3221;48.858;10.128;2022-11-27T04:00:46;8.43;;;5.83;;
6376;SDS011;3221;48.858;10.128;2022-11-27T04:03:20;9.10;;;6.17;;
6376;SDS011;3221;48.858;10.128;2022-11-27T04:05:50;9.77;;;6.13;;
6376;SDS011;3221;48.858;10.128;2022-11-27T04:08:17;11.90;;;6.50;;
6376;SDS011;3221;48.858;10.128;2022-11-27T04:10:45;13.17;;;6.80;;
6376;SDS011;3221;48.858;10.128;2022-11-27T04:13:12;11.57;;;6.57;;
6376;SDS011;3221;48.858;10.128;2022-11-27T04:15:39;9.47;;;6.37;;
6376;SDS011;3221;48.858;10.128;2022-11-27T04:18:07;8.80;;;5.90;;
6376;SDS011;3221;48.858;10.128;2022-11-27T04:20:34;9.67;;;6.20;;
6376;SDS011;3221;48.858;10.128;2022-11-27T04:23:01;9.27;;;5.43;;
6376;SDS011;3221;48.858;10.128;2022-11-27T04:25:28;9.60;;;5.93;;
6376;SDS011;3221;48.858;10.128;2022-11-27T04:27:55;9.37;;;5.70;;
6376;SDS011;3221;48.858;10.128;2022-11-27T04:30:22;8.47;;;5.37;;
6376;SDS011;3221;48.858;10.128;2022-11-27T04:32:49;8.40;;;5.77;;
6376;SDS011;3221;48.858;10.128;2022-11-27T04:35:16;7.40;;;5.57;;
6376;SDS011;3221;48.858;10.128;2022-11-27T04:37:43;8.77;;;5.57;;
6376;SDS011;3221;48.858;10.128;2022-11-27T04:40:10;8.60;;;5.83;;
6376;SDS011;3221;48.858;10.128;2022-11-27T04:42:37;8.83;;;5.90;;
6376;SDS011;3221;48.858;10.128;2022-11-27T04:45:04;9.30;;;5.93;;
6376;SDS011;3221;48.858;10.128;2022-11-27T04:47:32;7.17;;;5.07;;
6376;SDS011;3221;48.858;10.128;2022-11-27T04:49:58;8.37;;;5.60;;
6376;SDS011;3221;48.858;10.128;2022-11-27T04:52:25;7.77;;;4.73;;
6376;SDS011;3221;48.858;10.128;2022-11-27T04:54:52;6.87;;;5.03;;
6376;SDS011;3221;48.858;10.128;2022-11-27T04:57:25;7.27;;;4.80;;
6376;SDS011;3221;48.858;10.128;2022-11-27T04:59:53;6.93;;;4.57;;
6376;SDS011;3221;48.858;10.128;2022-11-27T05:02:20;6.07;;;4.27;;
6376;SDS011;3221;48.858;10.128;2022-11-27T05:04:47;6.07;;;4.60;;
6376;SDS011;3221;48.858;10.128;2022-11-27T05:07:14;6.30;;;4.67;;
6376;SDS011;3221;48.858;10.128;2022-11-27T05:09:41;6.90;;;4.00;;
6376;SDS011;3221;48.858;10.128;2022-11-27T05:12:08;5.50;;;3.93;;
6376;SDS011;3221;48.858;10.128;2022-11-27T05:14:35;5.67;;;4.40;;
6376;SDS011;3221;48.858;10.128;2022-11-27T05:17:02;5.17;;;4.10;;
6376;SDS011;3221;48.858;10.128;2022-11-27T05:19:29;7.87;;;4.20;;
6376;SDS011;3221;48.858;10.128;2022-11-27T05:21:57;5.83;;;4.13;;
6376;SDS011;3221;48.858;10.128;2022-11-27T05:24:25;5.00;;;4.20;;
6376;SDS011;3221;48.858;10.128;2022-11-27T05:26:54;6.27;;;4.20;;
6376;SDS011;3221;48.858;10.128;2022-11-27T05:29:22;5.07;;;3.77;;
6376;SDS011;3221;48.858;10.128;2022-11-27T05:31:50;5.60;;;3.97;;
6376;SDS011;3221;48.858;10.128;2022-11-27T05:34:17;5.13;;;3.90;;
6376;SDS011;3221;48.858;10.128;2022-11-27T05:36:45;5.50;;;3.60;;
6376;SDS011;3221;48.858;10.128;2022-11-27T05:39:12;4.30;;;3.60;;
6376;SDS011;3221;48.858;10.128;2022-11-27T05:41:40;4.77;;;3.63;;
6376;SDS011;3221;48.858;10.128;2022-11-27T05:44:12;6.27;;;4.13;;
6376;SDS011;3221;48.858;10.128;2022-11-27T05:46:40;6.17;;;4.20;;
6376;SDS011;3221;48.858;10.128;2022-11-27T05:49:11;5.30;;;4.10;;
6376;SDS011;3221;48.858;10.128;2022-11-27T05:51:39;6.07;;;3.73;;
6376;SDS011;3221;48.858;10.128;2022-11-27T05:54:14;5.13;;;4.00;;
6376;SDS011;3221;48.858;10.128;2022-11-27T05:56:41;6.00;;;3.97;;
6376;SDS011;3221;48.858;10.128;2022-11-27T05:59:08;5.73;;;3.70;;
6376;SDS011;3221;48.858;10.128;2022-11-27T06:01:36;8.23;;;4.20;;
6376;SDS011;3221;48.858;10.128;2022-11-27T06:04:03;7.03;;;4.50;;
6376;SDS011;3221;48.858;10.128;2022-11-27T06:06:33;6.50;;;3.70;;
6376;SDS011;3221;48.858;10.128;2022-11-27T06:08:59;6.10;;;4.07;;
6376;SDS011;3221;48.858;10.128;2022-11-27T06:11:37;5.67;;;4.00;;
6376;SDS011;3221;48.858;10.128;2022-11-27T06:14:06;5.83;;;3.83;;
6376;SDS011;3221;48.858;10.128;2022-11-27T06:16:36;5.23;;;4.07;;
6376;SDS011;3221;48.858;10.128;2022-11-27T06:19:03;7.00;;;3.73;;
6376;SDS011;3221;48.858;10.128;2022-11-27T06:21:30;7.07;;;4.13;;
6376;SDS011;3221;48.858;10.128;2022-11-27T06:23:57;5.57;;;3.53;;
6376;SDS011;3221;48.858;10.128;2022-11-27T06:26:25;7.67;;;4.23;;
6376;SDS011;3221;48.858;10.128;2022-11-27T06:28:54;6.80;;;4.00;;
6376;SDS011;3221;48.858;10.128;2022-11-27T06:31:23;5.87;;;3.80;;
6376;SDS011;3221;48.858;10.128;2022-11-27T06:33:52;5.90;;;3.63;;
6376;SDS011;3221;48.858;10.128;2022-11-27T06:36:20;5.17;;;3.53;;
6376;SDS011;3221;48.858;10.128;2022-11-27T06:38:53;5.60;;;3.63;;
6376;SDS011;3221;48.858;10.128;2022-11-27T06:41:21;6.63;;;3.53;;
6376;SDS011;3221;48.858;10.128;2022-11-27T06:43:49;4.33;;;3.33;;
6376;SDS011;3221;48.858;10.128;2022-11-27T06:46:17;4.83;;;3.10;;
6376;SDS011;3221;48.858;10.128;2022-11-27T06:48:46;3.60;;;2.90;;
6376;SDS011;3221;48.858;10.128;2022-11-27T06:51:16;6.10;;;3.20;;
6376;SDS011;3221;48.858;10.128;2022-11-27T06:53:45;3.77;;;3.03;;
6376;SDS011;3221;48.858;10.128;2022-11-27T06:56:13;3.13;;;2.67;;
6376;SDS011;3221;48.858;10.128;2022-11-27T06:58:43;3.90;;;2.80;;
6376;SDS011;3221;48.858;10.128;2022-11-27T07:01:14;3.60;;;3.20;;
6376;SDS011;3221;48.858;10.128;2022-11-27T07:03:43;4.80;;;2.97;;
6376;SDS011;3221;48.858;10.128;2022-11-27T07:06:11;4.30;;;2.80;;
6376;SDS011;3221;48.858;10.128;2022-11-27T07:08:43;3.63;;;2.83;;
6376;SDS011;3221;48.858;10.128;2022-11-27T07:11:17;5.27;;;3.03;;
6376;SDS011;3221;48.858;10.128;2022-11-27T07:13:46;3.27;;;2.67;;
6376;SDS011;3221;48.858;10.128;2022-11-27T07:16:14;2.40;;;2.20;;
6376;SDS011;3221;48.858;10.128;2022-11-27T07:18:43;5.13;;;2.80;;
6376;SDS011;3221;48.858;10.128;2022-11-27T07:21:11;3.77;;;2.70;;
6376;SDS011;3221;48.858;10.128;2022-11-27T07:23:39;3.33;;;2.40;;
6376;SDS011;3221;48.858;10.128;2022-11-27T07:26:06;3.17;;;2.53;;
6376;SDS011;3221;48.858;10.128;2022-11-27T07:28:35;3.33;;;2.80;;
6376;SDS011;3221;48.858;10.128;2022-11-27T07:31:03;3.63;;;3.20;;
6376;SDS011;3221;48.858;10.128;2022-11-27T07:33:31;3.87;;;3.10;;
6376;SDS011;3221;48.858;10.128;2022-11-27T07:36:03;4.13;;;3.73;;
6376;SDS011;3221;48.858;10.128;2022-11-27T07:38:32;8.80;;;5.27;;
6376;SDS011;3221;48.858;10.128;2022-11-27T07:41:00;18.43;;;9.33;;
6376;SDS011;3221;48.858;10.128;2022-11-27T07:43:29;27.73;;;13.47;;
6376;SDS011;3221;48.858;10.128;2022-11-27T07:45:56;23.07;;;11.77;;
6376;SDS011;3221;48.858;10.128;2022-11-27T07:48:23;14.57;;;7.67;;
6376;SDS011;3221;48.858;10.128;2022-11-27T07:50:50;10.20;;;6.10;;
6376;SDS011;3221;48.858;10.128;2022-11-27T07:53:17;8.80;;;5.10;;
6376;SDS011;3221;48.858;10.128;2022-11-27T07:55:43;6.07;;;3.87;;
6376;SDS011;3221;48.858;10.128;2022-11-27T07:58:10;5.23;;;3.20;;
6376;SDS011;3221;48.858;10.128;2022-11-27T08:00:37;4.00;;;3.10;;
6376;SDS011;3221;48.858;10.128;2022-11-27T08:03:04;6.17;;;2.73;;
6376;SDS011;3221;48.858;10.128;2022-11-27T08:05:35;5.20;;;2.83;;
6376;SDS011;3221;48.858;10.128;2022-11-27T08:08:02;4.17;;;2.97;;
6376;SDS011;3221;48.858;10.128;2022-11-27T08:10:33;3.83;;;3.00;;
6376;SDS011;3221;48.858;10.128;2022-11-27T08:13:01;3.50;;;2.90;;
6376;SDS011;3221;48.858;10.128;2022-11-27T08:15:28;3.83;;;2.63;;
6376;SDS011;3221;48.858;10.128;2022-11-27T08:17:55;3.30;;;2.53;;
6376;SDS011;3221;48.858;10.128;2022-11-27T08:20:22;3.20;;;2.70;;
6376;SDS011;3221;48.858;10.128;2022-11-27T08:22:49;3.87;;;2.80;;
6376;SDS011;3221;48.858;10.128;2022-11-27T08:25:16;4.47;;;3.00;;
6376;SDS011;3221;48.858;10.128;2022-11-27T08:27:43;3.83;;;2.90;;
6376;SDS011;3221;48.858;10.128;2022-11-27T08:30:13;3.47;;;2.50;;
6376;SDS011;3221;48.858;10.128;2022-11-27T08:32:41;3.80;;;2.73;;
6376;SDS011;3221;48.858;10.128;2022-11-27T08:35:08;4.47;;;2.80;;
6376;SDS011;3221;48.858;10.128;2022-11-27T08:37:36;3.70;;;2.90;;
6376;SDS011;3221;48.858;10.128;2022-11-27T08:40:03;4.10;;;3.00;;
6376;SDS011;3221;48.858;10.128;2022-11-27T08:42:31;3.70;;;3.00;;
6376;SDS011;3221;48.858;10.128;2022-11-27T08:44:57;3.30;;;3.00;;
6376;SDS011;3221;48.858;10.128;2022-11-27T08:47:24;4.30;;;3.20;;
6376;SDS011;3221;48.858;10.128;2022-11-27T08:49:51;4.30;;;3.37;;
6376;SDS011;3221;48.858;10.128;2022-11-27T08:52:18;4.37;;;3.00;;
6376;SDS011;3221;48.858;10.128;2022-11-27T08:54:45;5.07;;;3.17;;
6376;SDS011;3221;48.858;10.128;2022-11-27T08:57:12;4.30;;;3.20;;
6376;SDS011;3221;48.858;10.128;2022-11-27T08:59:39;4.13;;;2.83;;
6376;SDS011;3221;48.858;10.128;2022-11-27T09:02:09;4.03;;;3.00;;
6376;SDS011;3221;48.858;10.128;2022-11-27T09:04:37;3.13;;;2.80;;
6376;SDS011;3221;48.858;10.128;2022-11-27T09:07:05;4.37;;;3.10;;
6376;SDS011;3221;48.858;10.128;2022-11-27T09:09:32;5.17;;;3.00;;
6376;SDS011;3221;48.858;10.128;2022-11-27T09:11:58;4.33;;;2.70;;
6376;SDS011;3221;48.858;10.128;2022-11-27T09:14:25;4.83;;;2.80;;
6376;SDS011;3221;48.858;10.128;2022-11-27T09:16:52;2.63;;;2.40;;
6376;SDS011;3221;48.858;10.128;2022-11-27T09:19:19;2.70;;;2.30;;
6376;SDS011;3221;48.858;10.128;2022-11-27T09:21:48;2.87;;;2.57;;
6376;SDS011;3221;48.858;10.128;2022-11-27T09:24:15;2.47;;;2.27;;
6376;SDS011;3221;48.858;10.128;2022-11-27T09:26:42;3.27;;;2.63;;
6376;SDS011;3221;48.858;10.128;2022-11-27T09:29:10;3.20;;;2.20;;
6376;SDS011;3221;48.858;10.128;2022-11-27T09:31:36;3.23;;;2.60;;
6376;SDS011;3221;48.858;10.128;2022-11-27T09:34:03;3.37;;;2.47;;
6376;SDS011;3221;48.858;10.128;2022-11-27T09:36:31;4.23;;;2.70;;
6376;SDS011;3221;48.858;10.128;2022-11-27T09:38:58;3.00;;;2.63;;
6376;SDS011;3221;48.858;10.128;2022-11-27T09:41:45;2.93;;;2.47;;
6376;SDS011;3221;48.858;10.128;2022-11-27T09:50:18;3.50;;;2.70;;
6376;SDS011;3221;48.858;10.128;2022-11-27T09:55:42;2.90;;;2.63;;
6376;SDS011;3221;48.858;10.128;2022-11-27T09:58:21;4.07;;;3.10;;
6376;SDS011;3221;48.858;10.128;2022-11-27T10:00:52;3.00;;;2.70;;
6376;SDS011;3221;48.858;10.128;2022-11-27T10:03:20;3.90;;;3.03;;
6376;SDS011;3221;48.858;10.128;2022-11-27T10:08:46;3.90;;;2.83;;
6376;SDS011;3221;48.858;10.128;2022-11-27T10:11:40;3.40;;;2.70;;
6376;SDS011;3221;48.858;10.128;2022-11-27T10:17:31;3.00;;;2.70;;
6376;SDS011;3221;48.858;10.128;2022-11-27T10:20:24;4.70;;;3.20;;
6376;SDS011;3221;48.858;10.128;2022-11-27T10:26:10;3.13;;;2.70;;
6376;SDS011;3221;48.858;10.128;2022-11-27T10:31:53;3.07;;;2.47;;
6376;SDS011;3221;48.858;10.128;2022-11-27T10:39:44;3.40;;;2.80;;
6376;SDS011;3221;48.858;10.128;2022-11-27T10:44:49;3.10;;;2.70;;
6376;SDS011;3221;48.858;10.128;2022-11-27T10:47:22;2.77;;;2.50;;
6376;SDS011;3221;48.858;10.128;2022-11-27T10:49:58;4.33;;;2.83;;
6376;SDS011;3221;48.858;10.128;2022-11-27T10:52:25;2.77;;;2.40;;
6376;SDS011;3221;48.858;10.128;2022-11-27T10:54:56;3.53;;;2.67;;
6376;SDS011;3221;48.858;10.128;2022-11-27T10:57:30;3.37;;;2.70;;
6376;SDS011;3221;48.858;10.128;2022-11-27T11:00:19;2.67;;;2.43;;
6376;SDS011;3221;48.858;10.128;2022-11-27T11:02:48;3.00;;;2.47;;
6376;SDS011;3221;48.858;10.128;2022-11-27T11:05:29;3.23;;;2.23;;
6376;SDS011;3221;48.858;10.128;2022-11-27T11:08:17;4.10;;;2.40;;
6376;SDS011;3221;48.858;10.128;2022-11-27T11:10:49;2.47;;;2.10;;
6376;SDS011;3221;48.858;10.128;2022-11-27T11:13:18;2.90;;;2.60;;
6376;SDS011;3221;48.858;10.128;2022-11-27T11:15:57;3.93;;;2.60;;
6376;SDS011;3221;48.858;10.128;2022-11-27T11:18:33;2.73;;;2.53;;
6376;SDS011;3221;48.858;10.128;2022-11-27T11:21:11;4.47;;;2.60;;
6376;SDS011;3221;48.858;10.128;2022-11-27T11:23:43;4.30;;;2.70;;
6376;SDS011;3221;48.858;10.128;2022-11-27T11:26:33;3.40;;;2.60;;
6376;SDS011;3221;48.858;10.128;2022-11-27T11:29:05;6.10;;;3.00;;
6376;SDS011;3221;48.858;10.128;2022-11-27T11:31:45;3.00;;;2.50;;
6376;SDS011;3221;48.858;10.128;2022-11-27T11:34:23;4.67;;;3.03;;
6376;SDS011;3221;48.858;10.128;2022-11-27T11:36:54;4.10;;;2.70;;
6376;SDS011;3221;48.858;10.128;2022-11-27T11:39:23;3.57;;;3.13;;
6376;SDS011;3221;48.858;10.128;2022-11-27T11:41:52;3.20;;;2.90;;
6376;SDS011;3221;48.858;10.128;2022-11-27T11:44:21;5.57;;;3.13;;
6376;SDS011;3221;48.858;10.128;2022-11-27T11:46:53;4.63;;;3.60;;
6376;SDS011;3221;48.858;10.128;2022-11-27T11:49:23;4.20;;;3.17;;
6376;SDS011;3221;48.858;10.128;2022-11-27T11:52:08;3.20;;;2.87;;
6376;SDS011;3221;48.858;10.128;2022-11-27T11:54:59;4.30;;;3.43;;
6376;SDS011;3221;48.858;10.128;2022-11-27T11:57:43;3.20;;;2.90;;
6376;SDS011;3221;48.858;10.128;2022-11-27T12:00:14;3.30;;;2.80;;
6376;SDS011;3221;48.858;10.128;2022-11-27T12:17:05;4.77;;;3.13;;
6376;SDS011;3221;48.858;10.128;2022-11-27T12:31:05;4.50;;;3.50;;
6376;SDS011;3221;48.858;10.128;2022-11-27T12:33:37;5.00;;;3.70;;
6376;SDS011;3221;48.858;10.128;2022-11-27T12:36:22;4.37;;;3.47;;
6376;SDS011;3221;48.858;10.128;2022-11-27T12:49:49;4.13;;;3.37;;
6376;SDS011;3221;48.858;10.128;2022-11-27T12:52:30;3.20;;;2.90;;
6376;SDS011;3221;48.858;10.128;2022-11-27T12:55:11;4.07;;;3.10;;
6376;SDS011;3221;48.858;10.128;2022-11-27T12:58:02;4.23;;;3.10;;
6376;SDS011;3221;48.858;10.128;2022-11-27T13:00:34;4.30;;;3.20;;
6376;SDS011;3221;48.858;10.128;2022-11-27T13:05:58;3.87;;;3.00;;
6376;SDS011;3221;48.858;10.128;2022-11-27T13:11:25;3.00;;;2.70;;
6376;SDS011;3221;48.858;10.128;2022-11-27T13:13:59;4.43;;;3.10;;
6376;SDS011;3221;48.858;10.128;2022-11-27T13:16:35;4.90;;;3.60;;
6376;SDS011;3221;48.858;10.128;2022-11-27T13:19:21;4.77;;;3.90;;
6376;SDS011;3221;48.858;10.128;2022-11-27T13:22:10;4.10;;;3.50;;
6376;SDS011;3221;48.858;10.128;2022-11-27T13:24:46;4.07;;;3.67;;
6376;SDS011;3221;48.858;10.128;2022-11-27T13:27:17;4.43;;;3.53;;
6376;SDS011;3221;48.858;10.128;2022-11-27T13:32:39;4.40;;;3.70;;
6376;SDS011;3221;48.858;10.128;2022-11-27T13:35:19;3.63;;;3.30;;
6376;SDS011;3221;48.858;10.128;2022-11-27T13:38:21;4.03;;;3.63;;
6376;SDS011;3221;48.858;10.128;2022-11-27T13:40:51;3.60;;;3.03;;
6376;SDS011;3221;48.858;10.128;2022-11-27T13:43:25;3.63;;;3.33;;
6376;SDS011;3221;48.858;10.128;2022-11-27T13:46:14;4.77;;;3.40;;
6376;SDS011;3221;48.858;10.128;2022-11-27T13:48:51;4.73;;;3.27;;
6376;SDS011;3221;48.858;10.128;2022-11-27T13:51:25;3.57;;;3.17;;
6376;SDS011;3221;48.858;10.128;2022-11-27T13:54:05;3.17;;;2.70;;
6376;SDS011;3221;48.858;10.128;2022-11-27T13:56:34;4.17;;;3.17;;
6376;SDS011;3221;48.858;10.128;2022-11-27T13:59:11;4.80;;;3.50;;
6376;SDS011;3221;48.858;10.128;2022-11-27T14:01:51;4.07;;;3.50;;
6376;SDS011;3221;48.858;10.128;2022-11-27T14:04:20;4.50;;;3.27;;
6376;SDS011;3221;48.858;10.128;2022-11-27T14:06:54;5.07;;;3.90;;
6376;SDS011;3221;48.858;10.128;2022-11-27T14:09:36;4.90;;;4.10;;
6376;SDS011;3221;48.858;10.128;2022-11-27T14:17:49;4.93;;;4.00;;
6376;SDS011;3221;48.858;10.128;2022-11-27T14:20:26;6.60;;;4.57;;
6376;SDS011;3221;48.858;10.128;2022-11-27T14:22:56;5.87;;;4.80;;
6376;SDS011;3221;48.858;10.128;2022-11-27T14:25:40;7.07;;;4.40;;
6376;SDS011;3221;48.858;10.128;2022-11-27T14:33:30;6.17;;;5.13;;
6376;SDS011;3221;48.858;10.128;2022-11-27T14:36:25;7.00;;;5.90;;
6376;SDS011;3221;48.858;10.128;2022-11-27T14:38:57;8.07;;;5.57;;
6376;SDS011;3221;48.858;10.128;2022-11-27T14:41:24;7.07;;;5.10;;
6376;SDS011;3221;48.858;10.128;2022-11-27T14:43:59;5.83;;;4.80;;
6376;SDS011;3221;48.858;10.128;2022-11-27T14:46:27;5.73;;;4.70;;
6376;SDS011;3221;48.858;10.128;2022-11-27T14:48:56;5.50;;;4.40;;
6376;SDS011;3221;48.858;10.128;2022-11-27T14:51:24;5.47;;;4.73;;
6376;SDS011;3221;48.858;10.128;2022-11-27T14:53:56;6.47;;;5.23;;
6376;SDS011;3221;48.858;10.128;2022-11-27T14:56:32;6.53;;;4.90;;
6376;SDS011;3221;48.858;10.128;2022-11-27T14:59:01;6.60;;;4.53;;
6376;SDS011;3221;48.858;10.128;2022-11-27T15:01:30;6.43;;;5.23;;
6376;SDS011;3221;48.858;10.128;2022-11-27T15:04:03;6.77;;;5.37;;
6376;SDS011;3221;48.858;10.128;2022-11-27T15:06:34;6.13;;;4.73;;
6376;SDS011;3221;48.858;10.128;2022-11-27T15:09:05;5.87;;;5.17;;
6376;SDS011;3221;48.858;10.128;2022-11-27T15:11:53;7.60;;;5.00;;
6376;SDS011;3221;48.858;10.128;2022-11-27T15:14:23;5.90;;;4.60;;
6376;SDS011;3221;48.858;10.128;2022-11-27T15:16:53;6.03;;;4.67;;
6376;SDS011;3221;48.858;10.128;2022-11-27T15:19:28;5.93;;;4.90;;
6376;SDS011;3221;48.858;10.128;2022-11-27T15:22:01;6.63;;;5.30;;
6376;SDS011;3221;48.858;10.128;2022-11-27T15:24:30;5.90;;;4.83;;
6376;SDS011;3221;48.858;10.128;2022-11-27T15:27:13;5.87;;;5.17;;
6376;SDS011;3221;48.858;10.128;2022-11-27T15:32:17;6.57;;;5.20;;
6376;SDS011;3221;48.858;10.128;2022-11-27T15:34:49;6.27;;;5.20;;
6376;SDS011;3221;48.858;10.128;2022-11-27T15:37:30;6.97;;;5.07;;
6376;SDS011;3221;48.858;10.128;2022-11-27T15:39:59;5.80;;;4.87;;
6376;SDS011;3221;48.858;10.128;2022-11-27T15:42:27;4.93;;;4.43;;
6376;SDS011;3221;48.858;10.128;2022-11-27T15:44:56;6.30;;;5.03;;
6376;SDS011;3221;48.858;10.128;2022-11-27T15:47:27;7.57;;;5.17;;
6376;SDS011;3221;48.858;10.128;2022-11-27T15:49:56;5.23;;;4.70;;
6376;SDS011;3221;48.858;10.128;2022-11-27T15:52:24;6.90;;;5.03;;
6376;SDS011;3221;48.858;10.128;2022-11-27T15:54:52;6.47;;;5.23;;
6376;SDS011;3221;48.858;10.128;2022-11-27T15:57:20;7.10;;;5.40;;
6376;SDS011;3221;48.858;10.128;2022-11-27T15:59:47;7.93;;;5.67;;
6376;SDS011;3221;48.858;10.128;2022-11-27T16:02:14;7.20;;;5.50;;
6376;SDS011;3221;48.858;10.128;2022-11-27T16:04:43;6.67;;;5.20;;
6376;SDS011;3221;48.858;10.128;2022-11-27T16:07:10;8.57;;;5.50;;
6376;SDS011;3221;48.858;10.128;2022-11-27T16:09:37;6.43;;;5.20;;
6376;SDS011;3221;48.858;10.128;2022-11-27T16:12:05;7.33;;;5.63;;
6376;SDS011;3221;48.858;10.128;2022-11-27T16:14:32;6.80;;;5.40;;
6376;SDS011;3221;48.858;10.128;2022-11-27T16:16:59;7.70;;;6.00;;
6376;SDS011;3221;48.858;10.128;2022-11-27T16:19:26;7.60;;;5.90;;
6376;SDS011;3221;48.858;10.128;2022-11-27T16:21:53;7.53;;;5.90;;
6376;SDS011;3221;48.858;10.128;2022-11-27T16:24:22;7.37;;;6.17;;
6376;SDS011;3221;48.858;10.128;2022-11-27T16:26:48;9.40;;;5.87;;
6376;SDS011;3221;48.858;10.128;2022-11-27T16:29:15;7.47;;;6.00;;
6376;SDS011;3221;48.858;10.128;2022-11-27T16:31:42;7.67;;;6.33;;
6376;SDS011;3221;48.858;10.128;2022-11-27T16:34:10;8.37;;;6.73;;
6376;SDS011;3221;48.858;10.128;2022-11-27T16:36:40;8.27;;;6.73;;
6376;SDS011;3221;48.858;10.128;2022-11-27T16:39:09;8.63;;;6.93;;
6376;SDS011;3221;48.858;10.128;2022-11-27T16:41:37;15.10;;;7.20;;
6376;SDS011;3221;48.858;10.128;2022-11-27T16:44:08;8.27;;;7.03;;
6376;SDS011;3221;48.858;10.128;2022-11-27T16:46:38;9.57;;;7.17;;
6376;SDS011;3221;48.858;10.128;2022-11-27T16:49:05;8.20;;;6.63;;
6376;SDS011;3221;48.858;10.128;2022-11-27T16:51:33;8.27;;;6.27;;
6376;SDS011;3221;48.858;10.128;2022-11-27T16:54:01;7.23;;;6.33;;
6376;SDS011;3221;48.858;10.128;2022-11-27T16:56:30;8.13;;;6.07;;
6376;SDS011;3221;48.858;10.128;2022-11-27T16:59:10;7.87;;;6.20;;
6376;SDS011;3221;48.858;10.128;2022-11-27T17:01:39;6.77;;;5.43;;
6376;SDS011;3221;48.858;10.128;2022-11-27T17:04:08;7.20;;;6.20;;
6376;SDS011;3221;48.858;10.128;2022-11-27T17:06:45;7.37;;;6.03;;
6376;SDS011;3221;48.858;10.128;2022-11-27T17:09:13;9.30;;;7.17;;
6376;SDS011;3221;48.858;10.128;2022-11-27T17:11:42;8.00;;;6.30;;
6376;SDS011;3221;48.858;10.128;2022-11-27T17:14:13;7.63;;;6.43;;
6376;SDS011;3221;48.858;10.128;2022-11-27T17:16:41;7.43;;;6.13;;
6376;SDS011;3221;48.858;10.128;2022-11-27T17:19:12;7.17;;;6.43;;
6376;SDS011;3221;48.858;10.128;2022-11-27T17:21:41;6.93;;;6.10;;
6376;SDS011;3221;48.858;10.128;2022-11-27T17:24:10;8.27;;;6.37;;